createdAt,value
2018-06-13T00:00:52.584Z,15.60
2018-06-13T00:03:21.895Z,15.60
2018-06-13T00:05:51.243Z,15.60
2018-06-13T00:08:20.535Z,15.50
2018-06-13T00:10:49.866Z,15.50
2018-06-13T00:13:19.231Z,15.40
2018-06-13T00:18:17.392Z,15.20
2018-06-13T00:20:46.709Z,15.10
2018-06-13T00:23:16.061Z,15.00
2018-06-13T00:25:45.367Z,14.90
2018-06-13T00:28:14.699Z,14.90
2018-06-13T00:30:43.972Z,14.70
2018-06-13T00:33:13.284Z,14.60
2018-06-13T00:35:42.590Z,14.60
2018-06-13T00:38:12.032Z,14.60
2018-06-13T00:40:41.561Z,14.50
2018-06-13T00:43:11.128Z,14.50
2018-06-13T00:45:40.632Z,14.50
2018-06-13T00:48:09.983Z,14.40
2018-06-13T00:50:39.301Z,14.40
2018-06-13T00:53:08.644Z,14.40
2018-06-13T00:56:46.271Z,14.40
2018-06-13T00:59:15.558Z,14.30
2018-06-13T01:01:44.867Z,14.30
2018-06-13T01:04:14.182Z,14.30
2018-06-13T01:06:43.520Z,14.30
2018-06-13T01:09:12.837Z,14.40
2018-06-13T01:11:42.331Z,14.40
2018-06-13T01:14:17.990Z,14.50
2018-06-13T01:16:47.349Z,14.50
2018-06-13T01:19:16.633Z,14.60
2018-06-13T01:21:46.823Z,14.70
2018-06-13T01:24:16.146Z,14.80
2018-06-13T01:29:14.516Z,14.90
2018-06-13T01:31:44.095Z,14.90
2018-06-13T01:34:13.800Z,15.00
2018-06-13T01:36:43.340Z,15.10
2018-06-13T01:39:12.844Z,15.10
2018-06-13T01:41:42.344Z,15.10
2018-06-13T01:44:11.923Z,15.10
2018-06-13T01:46:41.365Z,15.10
2018-06-13T01:49:10.963Z,15.10
2018-06-13T01:51:40.523Z,15.10
2018-06-13T01:54:10.037Z,15.00
2018-06-13T01:56:39.440Z,14.90
2018-06-13T01:59:08.907Z,14.90
2018-06-13T02:01:38.441Z,14.80
2018-06-13T02:04:08.043Z,14.80
2018-06-13T02:06:37.474Z,14.80
2018-06-13T02:09:08.179Z,14.70
2018-06-13T02:11:37.704Z,14.70
2018-06-13T02:14:07.359Z,14.70
2018-06-13T02:16:36.892Z,14.70
2018-06-13T02:21:35.187Z,14.60
2018-06-13T02:24:04.539Z,14.50
2018-06-13T02:26:33.852Z,14.50
2018-06-13T02:29:03.223Z,14.30
2018-06-13T02:31:32.554Z,14.20
2018-06-13T02:34:01.880Z,14.20
2018-06-13T02:39:00.000Z,14.20
2018-06-13T02:41:29.343Z,14.20
2018-06-13T02:43:58.916Z,14.30
2018-06-13T02:46:28.340Z,14.40
2018-06-13T02:48:57.799Z,14.40
2018-06-13T02:51:27.351Z,14.30
2018-06-13T02:53:56.915Z,14.30
2018-06-13T02:56:26.464Z,14.30
2018-06-13T02:58:55.780Z,14.20
2018-06-13T03:01:25.106Z,14.20
2018-06-13T03:06:26.209Z,14.30
2018-06-13T03:08:55.513Z,14.40
2018-06-13T03:11:24.834Z,14.40
2018-06-13T03:13:54.175Z,14.50
2018-06-13T03:16:23.589Z,14.50
2018-06-13T03:18:53.260Z,14.60
2018-06-13T03:21:22.822Z,14.60
2018-06-13T03:23:52.332Z,14.50
2018-06-13T03:26:21.823Z,14.60
2018-06-13T03:28:51.366Z,14.60
2018-06-13T03:31:20.917Z,14.60
2018-06-13T03:33:50.393Z,14.60
2018-06-13T03:36:19.960Z,14.60
2018-06-13T03:38:49.499Z,14.70
2018-06-13T03:41:19.070Z,14.70
2018-06-13T03:43:48.653Z,14.70
2018-06-13T03:46:18.202Z,14.70
2018-06-13T03:48:47.710Z,14.80
2018-06-13T03:51:17.107Z,14.70
2018-06-13T03:53:46.382Z,14.70
2018-06-13T03:56:15.756Z,14.70
2018-06-13T03:58:45.132Z,14.80
2018-06-13T04:01:14.599Z,14.80
2018-06-13T04:03:44.193Z,14.80
2018-06-13T04:06:13.739Z,14.80
2018-06-13T04:08:43.292Z,14.90
2018-06-13T04:13:41.859Z,14.90
2018-06-13T04:16:11.379Z,15.00
2018-06-13T04:18:40.787Z,15.10
2018-06-13T04:21:10.172Z,15.10
2018-06-13T04:23:39.502Z,15.10
2018-06-13T04:26:08.872Z,15.20
2018-06-13T04:28:38.458Z,15.30
2018-06-13T04:31:08.024Z,15.30
2018-06-13T04:36:06.545Z,15.40
2018-06-13T04:38:36.059Z,15.40
2018-06-13T04:41:05.643Z,15.40
2018-06-13T04:43:35.140Z,15.40
2018-06-13T04:46:04.711Z,15.50
2018-06-13T04:48:34.229Z,15.40
2018-06-13T04:51:03.704Z,15.30
2018-06-13T04:53:33.196Z,15.20
2018-06-13T04:56:02.541Z,15.10
2018-06-13T04:58:32.032Z,15.00
2018-06-13T05:01:01.567Z,14.80
2018-06-13T05:08:28.915Z,14.80
2018-06-13T05:10:58.237Z,14.70
2018-06-13T05:13:27.667Z,14.80
2018-06-13T05:18:26.073Z,14.90
2018-06-13T05:23:24.618Z,15.00
2018-06-13T05:25:54.051Z,15.00
2018-06-13T05:28:23.548Z,15.10
2018-06-13T05:30:53.182Z,15.20
2018-06-13T05:33:22.718Z,15.30
2018-06-13T05:35:52.041Z,15.40
2018-06-13T05:38:21.560Z,15.50
2018-06-13T05:40:50.852Z,15.50
2018-06-13T05:43:20.184Z,15.60
2018-06-13T05:45:49.528Z,15.60
2018-06-13T05:48:18.884Z,15.60
2018-06-13T05:50:48.344Z,15.70
2018-06-13T05:53:17.877Z,15.70
2018-06-13T05:55:47.180Z,15.70
2018-06-13T05:58:16.483Z,15.70
2018-06-13T06:00:45.820Z,15.70
2018-06-13T06:03:15.391Z,15.50
2018-06-13T06:05:44.820Z,15.40
2018-06-13T06:10:43.421Z,15.30
2018-06-13T06:13:12.916Z,15.30
2018-06-13T06:15:42.410Z,15.30
2018-06-13T06:18:12.028Z,15.40
2018-06-13T06:20:41.683Z,15.50
2018-06-13T06:23:11.176Z,15.50
2018-06-13T06:25:40.812Z,15.50
2018-06-13T06:28:10.372Z,15.50
2018-06-13T06:30:39.920Z,15.50
2018-06-13T06:33:09.422Z,15.40
2018-06-13T06:35:38.940Z,15.40
2018-06-13T06:38:08.439Z,15.40
2018-06-13T06:40:37.812Z,15.50
2018-06-13T06:43:07.115Z,15.60
2018-06-13T06:45:36.449Z,15.50
2018-06-13T06:48:05.963Z,15.50
2018-06-13T06:50:35.253Z,15.60
2018-06-13T06:53:04.591Z,15.60
2018-06-13T06:55:33.954Z,15.70
2018-06-13T06:58:03.256Z,15.70
2018-06-13T07:00:32.616Z,15.80
2018-06-13T07:03:02.040Z,15.90
2018-06-13T07:05:31.460Z,16.00
2018-06-13T07:08:00.962Z,16.10
2018-06-13T07:10:30.468Z,16.20
2018-06-13T07:13:00.033Z,16.30
2018-06-13T07:15:29.644Z,16.40
2018-06-13T07:17:59.140Z,16.50
2018-06-13T07:25:26.515Z,16.80
2018-06-13T07:27:55.793Z,16.80
2018-06-13T07:30:25.117Z,16.70
2018-06-13T07:32:54.524Z,16.60
2018-06-13T07:35:24.024Z,16.60
2018-06-13T07:37:53.540Z,16.50
2018-06-13T07:40:23.041Z,16.40
2018-06-13T07:42:52.528Z,16.40
2018-06-13T07:45:22.115Z,16.40
2018-06-13T07:47:51.675Z,16.60
2018-06-13T07:55:19.252Z,16.50
2018-06-13T07:57:48.738Z,16.30
2018-06-13T08:00:18.389Z,16.10
2018-06-13T08:05:16.884Z,16.30
2018-06-13T08:07:46.344Z,16.40
2018-06-13T08:10:15.777Z,16.50
2018-06-13T08:15:14.367Z,16.50
2018-06-13T08:20:12.683Z,16.50
2018-06-13T08:22:42.110Z,16.60
2018-06-13T08:25:11.596Z,16.60
2018-06-13T08:30:15.901Z,16.50
2018-06-13T08:32:45.399Z,16.40
2018-06-13T08:35:16.418Z,16.40
2018-06-13T08:37:46.494Z,16.40
2018-06-13T08:40:16.197Z,16.50
2018-06-13T08:42:45.782Z,16.60
2018-06-13T08:45:15.484Z,16.70
2018-06-13T08:47:48.888Z,16.90
2018-06-13T08:50:19.005Z,17.00
2018-06-13T08:52:48.566Z,17.00
2018-06-13T08:55:18.158Z,16.80
2018-06-13T08:57:47.472Z,16.90
2018-06-13T09:00:16.712Z,17.00
2018-06-13T09:02:46.023Z,17.00
2018-06-13T09:05:15.353Z,16.90
2018-06-13T09:07:44.730Z,16.80
2018-06-13T09:10:14.005Z,16.80
2018-06-13T09:12:43.424Z,16.70
2018-06-13T09:15:12.865Z,16.60
2018-06-13T09:17:42.470Z,16.50
2018-06-13T09:22:41.024Z,16.10
2018-06-13T09:25:10.592Z,16.10
2018-06-13T09:27:40.128Z,16.10
2018-06-13T09:30:09.409Z,16.00
2018-06-13T09:32:38.699Z,16.10
2018-06-13T09:35:07.989Z,16.30
2018-06-13T09:37:37.332Z,16.50
2018-06-13T09:40:06.628Z,16.60
2018-06-13T09:42:35.955Z,16.70
2018-06-13T09:45:05.415Z,16.70
2018-06-13T09:47:35.028Z,16.80
2018-06-13T09:50:04.624Z,16.90
2018-06-13T09:55:03.061Z,17.30
2018-06-13T09:57:32.552Z,17.50
2018-06-13T10:00:07.358Z,17.60
2018-06-13T10:02:37.547Z,17.70
2018-06-13T10:07:36.015Z,17.40
2018-06-13T10:10:05.387Z,17.40
2018-06-13T10:12:34.680Z,17.30
2018-06-13T10:15:04.144Z,17.20
2018-06-13T10:17:33.687Z,17.00
2018-06-13T10:20:03.319Z,17.00
2018-06-13T10:22:32.841Z,16.90
2018-06-13T10:25:02.545Z,16.90
2018-06-13T10:27:37.412Z,16.80
2018-06-13T10:30:07.005Z,16.90
2018-06-13T10:32:36.488Z,17.10
2018-06-13T10:35:06.034Z,17.30
2018-06-13T10:37:35.529Z,17.50
2018-06-13T10:40:05.072Z,17.80
2018-06-13T10:42:34.580Z,17.90
2018-06-13T10:45:04.172Z,17.80
2018-06-13T10:50:02.310Z,17.20
2018-06-13T10:52:31.611Z,16.90
2018-06-13T10:55:00.945Z,16.70
2018-06-13T10:57:30.237Z,16.50
2018-06-13T10:59:59.572Z,16.50
2018-06-13T11:04:57.711Z,16.70
2018-06-13T11:07:27.006Z,16.90
2018-06-13T11:09:56.345Z,17.00
2018-06-13T11:12:25.628Z,17.20
2018-06-13T11:14:54.976Z,17.30
2018-06-13T11:17:24.259Z,17.50
2018-06-13T11:19:53.568Z,17.40
2018-06-13T11:22:22.880Z,17.50
2018-06-13T11:24:52.238Z,17.60
2018-06-13T11:27:21.500Z,17.60
2018-06-13T11:29:50.771Z,17.70
2018-06-13T11:32:20.157Z,17.70
2018-06-13T11:37:22.793Z,18.00
2018-06-13T11:39:52.271Z,18.00
2018-06-13T11:44:50.423Z,17.80
2018-06-13T11:47:19.711Z,17.70
2018-06-13T11:49:48.990Z,17.60
2018-06-13T11:52:18.571Z,17.40
2018-06-13T11:54:48.572Z,17.20
2018-06-13T11:57:18.212Z,17.00
2018-06-13T11:59:47.483Z,16.90
2018-06-13T12:04:45.635Z,16.70
2018-06-13T12:07:14.935Z,16.60
2018-06-13T12:09:44.201Z,16.50
2018-06-13T12:12:13.516Z,16.40
2018-06-13T12:14:42.841Z,16.30
2018-06-13T12:17:12.141Z,16.40
2018-06-13T12:19:41.411Z,16.40
2018-06-13T12:22:10.751Z,16.40
2018-06-13T12:24:40.030Z,16.40
2018-06-13T12:27:09.352Z,16.50
2018-06-13T12:29:38.641Z,16.60
2018-06-13T12:32:07.974Z,16.80
2018-06-13T12:34:37.270Z,16.90
2018-06-13T12:37:06.662Z,17.00
2018-06-13T12:39:35.977Z,17.10
2018-06-13T12:42:05.292Z,17.20
2018-06-13T12:44:34.660Z,17.30
2018-06-13T12:47:04.151Z,17.30
2018-06-13T12:49:33.613Z,17.30
2018-06-13T12:52:03.201Z,17.40
2018-06-13T12:54:32.753Z,17.40
2018-06-13T12:57:02.076Z,17.50
2018-06-13T12:59:31.360Z,17.50
2018-06-13T13:02:00.686Z,17.50
2018-06-13T13:04:30.013Z,17.50
2018-06-13T13:06:59.298Z,17.60
2018-06-13T13:09:28.585Z,17.60
2018-06-13T13:11:57.869Z,17.70
2018-06-13T13:14:27.216Z,17.60
2018-06-13T13:16:56.503Z,17.60
2018-06-13T13:19:25.787Z,17.60
2018-06-13T13:21:55.111Z,17.60
2018-06-13T13:24:24.498Z,17.50
2018-06-13T13:26:53.753Z,17.40
2018-06-13T13:29:23.089Z,17.40
2018-06-13T13:31:52.372Z,17.50
2018-06-13T13:34:21.711Z,17.50
2018-06-13T13:36:51.055Z,17.50
2018-06-13T13:39:20.355Z,17.60
2018-06-13T13:41:49.631Z,17.70
2018-06-13T13:44:18.932Z,17.90
2018-06-13T13:46:48.229Z,17.80
2018-06-13T13:49:17.522Z,17.90
2018-06-13T13:51:46.805Z,18.00
2018-06-13T13:54:16.221Z,18.10
2018-06-13T13:56:45.646Z,18.10
2018-06-13T13:59:15.176Z,18.10
2018-06-13T14:01:44.646Z,18.20
2018-06-13T14:04:14.243Z,18.10
2018-06-13T14:06:43.784Z,18.00
2018-06-13T14:09:13.281Z,18.00
2018-06-13T14:11:42.574Z,17.90
2018-06-13T14:14:11.988Z,17.90
2018-06-13T14:16:41.321Z,17.70
2018-06-13T14:19:10.627Z,17.60
2018-06-13T14:21:39.912Z,17.40
2018-06-13T14:24:09.263Z,17.20
2018-06-13T14:26:38.527Z,17.00
2018-06-13T14:29:07.836Z,16.80
2018-06-13T14:31:37.102Z,16.70
2018-06-13T14:34:06.438Z,16.50
2018-06-13T14:36:35.721Z,16.50
2018-06-13T14:39:07.959Z,16.50
2018-06-13T14:41:37.412Z,16.50
2018-06-13T14:44:07.475Z,16.60
2018-06-13T14:46:36.776Z,16.70
2018-06-13T14:51:34.877Z,17.10
2018-06-13T14:54:04.222Z,17.30
2018-06-13T14:56:33.890Z,17.50
2018-06-13T14:59:03.503Z,17.70
2018-06-13T15:01:32.843Z,17.90
2018-06-13T15:04:02.124Z,17.90
2018-06-13T15:06:31.434Z,18.00
2018-06-13T15:09:00.775Z,18.00
2018-06-13T15:13:58.924Z,18.10
2018-06-13T15:16:28.233Z,18.10
2018-06-13T15:18:57.583Z,18.10
2018-06-13T15:21:26.864Z,18.20
2018-06-13T15:23:56.121Z,18.30
2018-06-13T15:26:25.452Z,18.30
2018-06-13T15:28:54.753Z,18.00
2018-06-13T15:31:24.063Z,18.00
2018-06-13T15:33:53.402Z,18.00
2018-06-13T15:36:22.663Z,18.00
2018-06-13T15:38:51.912Z,17.90
2018-06-13T15:41:21.224Z,17.90
2018-06-13T15:43:50.492Z,17.80
2018-06-13T15:46:19.866Z,18.00
2018-06-13T15:48:49.392Z,18.10
2018-06-13T15:51:18.732Z,18.20
2018-06-13T15:53:48.023Z,18.30
2018-06-13T15:56:17.331Z,18.40
2018-06-13T15:58:46.664Z,18.40
2018-06-13T16:01:16.053Z,18.40
2018-06-13T16:03:45.362Z,18.40
2018-06-13T16:06:14.680Z,18.40
2018-06-13T16:08:43.948Z,18.40
2018-06-13T16:11:13.272Z,18.60
2018-06-13T16:13:42.933Z,18.60
2018-06-13T16:16:12.512Z,18.60
2018-06-13T16:18:42.063Z,18.60
2018-06-13T16:21:11.555Z,18.60
2018-06-13T16:23:41.128Z,18.60
2018-06-13T16:26:10.836Z,18.70
2018-06-13T16:28:40.248Z,18.80
2018-06-13T16:31:09.867Z,18.90
2018-06-13T16:33:39.420Z,18.90
2018-06-13T16:36:09.226Z,19.00
2018-06-13T16:38:38.680Z,19.00
2018-06-13T16:43:37.283Z,19.10
2018-06-13T16:46:07.092Z,19.00
2018-06-13T16:54:10.140Z,19.00
2018-06-13T16:56:40.353Z,19.00
2018-06-13T17:01:38.929Z,18.90
2018-06-13T17:04:08.729Z,19.00
2018-06-13T17:06:38.176Z,19.10
2018-06-13T17:09:08.166Z,19.10
2018-06-13T17:11:37.679Z,19.00
2018-06-13T17:14:07.256Z,18.90
2018-06-13T17:16:36.760Z,18.90
2018-06-13T17:19:06.368Z,18.90
2018-06-13T17:21:35.804Z,18.90
2018-06-13T17:24:05.368Z,19.00
2018-06-13T17:26:34.640Z,19.00
2018-06-13T17:29:04.050Z,19.10
2018-06-13T17:31:33.343Z,19.10
2018-06-13T17:34:02.714Z,19.20
2018-06-13T17:36:32.072Z,19.30
2018-06-13T17:39:01.420Z,19.40
2018-06-13T17:41:30.926Z,19.50
2018-06-13T17:44:00.527Z,19.60
2018-06-13T17:46:30.066Z,19.50
2018-06-13T17:48:59.739Z,19.40
2018-06-13T17:51:29.360Z,19.30
2018-06-13T17:53:58.951Z,19.10
2018-06-13T17:56:28.457Z,19.10
2018-06-13T17:58:58.057Z,19.00
2018-06-13T18:01:27.535Z,19.10
2018-06-13T18:03:57.230Z,19.10
2018-06-13T18:06:26.752Z,19.10
2018-06-13T18:08:56.100Z,19.00
2018-06-13T18:13:54.328Z,18.90
2018-06-13T18:16:23.667Z,18.90
2018-06-13T18:18:53.275Z,18.80
2018-06-13T18:21:22.621Z,18.70
2018-06-13T18:23:52.177Z,18.60
2018-06-13T18:26:21.681Z,18.50
2018-06-13T18:28:51.297Z,18.50
2018-06-13T18:33:50.073Z,18.40
2018-06-13T18:36:19.700Z,18.30
2018-06-13T18:38:49.216Z,18.20
2018-06-13T18:41:18.734Z,18.10
2018-06-13T18:43:48.215Z,18.00
2018-06-13T18:46:17.899Z,18.00
2018-06-13T18:48:47.487Z,17.90
2018-06-13T18:51:17.020Z,17.80
2018-06-13T18:53:46.584Z,17.70
2018-06-13T18:56:16.175Z,17.70
2018-06-13T18:58:45.773Z,17.50
2018-06-13T19:01:15.291Z,17.40
2018-06-13T19:03:44.837Z,17.40
2018-06-13T19:06:14.407Z,17.30
2018-06-13T19:08:43.885Z,17.20
2018-06-13T19:11:13.425Z,17.20
2018-06-13T19:13:42.913Z,17.10
2018-06-13T19:16:12.230Z,17.10
2018-06-13T19:18:41.529Z,17.00
2018-06-13T19:21:10.891Z,16.90
2018-06-13T19:23:40.335Z,16.80
2018-06-13T19:26:09.847Z,16.80
2018-06-13T19:28:45.784Z,16.70
2018-06-13T19:31:15.395Z,16.60
2018-06-13T19:36:13.654Z,16.40
2018-06-13T19:38:42.945Z,16.30
2018-06-13T19:41:12.347Z,16.20
2018-06-13T19:43:43.551Z,16.20
2018-06-13T19:48:50.928Z,16.00
2018-06-13T19:51:20.518Z,15.80
2018-06-13T19:53:55.016Z,15.70
2018-06-13T19:56:28.911Z,15.70
2018-06-13T19:58:58.394Z,15.50
2018-06-13T20:01:27.873Z,15.50
2018-06-13T20:04:02.636Z,15.40
2018-06-13T20:06:32.240Z,15.40
2018-06-13T20:09:01.807Z,15.40
2018-06-13T20:11:31.116Z,15.30
2018-06-13T20:14:05.782Z,15.30
2018-06-13T20:19:20.268Z,15.20
2018-06-13T20:21:49.582Z,15.20
2018-06-13T20:24:19.032Z,15.20
2018-06-13T20:26:53.805Z,15.20
2018-06-13T20:29:28.344Z,15.10
2018-06-13T20:31:57.679Z,15.20
2018-06-13T20:34:26.971Z,15.20
2018-06-13T20:36:56.316Z,15.10
2018-06-13T20:41:54.443Z,15.00
2018-06-13T20:44:23.712Z,15.00
2018-06-13T20:46:53.052Z,15.00
2018-06-13T20:49:22.363Z,14.90
2018-06-13T20:51:51.662Z,14.90
2018-06-13T20:54:20.924Z,14.90
2018-06-13T20:56:50.216Z,15.00
2018-06-13T20:59:19.501Z,15.00
2018-06-13T21:04:17.601Z,15.10
2018-06-13T21:06:46.908Z,15.10
2018-06-13T21:09:16.312Z,15.10
2018-06-13T21:11:45.612Z,15.20
2018-06-13T21:16:43.912Z,15.30
2018-06-13T21:19:13.429Z,15.30
2018-06-13T21:21:42.904Z,15.30
2018-06-13T21:26:41.457Z,15.20
2018-06-13T21:29:10.946Z,15.20
2018-06-13T21:31:40.260Z,15.20
2018-06-13T21:34:09.533Z,15.10
2018-06-13T21:36:38.864Z,15.10
2018-06-13T21:39:09.952Z,15.10
2018-06-13T21:44:08.136Z,15.10
2018-06-13T21:46:37.451Z,14.90
2018-06-13T21:51:35.599Z,14.80
2018-06-13T21:54:04.924Z,14.80
2018-06-13T21:56:34.422Z,14.90
2018-06-13T21:59:03.836Z,14.90
2018-06-13T22:01:33.123Z,14.80
2018-06-13T22:04:02.443Z,14.80
2018-06-13T22:09:00.952Z,14.90
2018-06-13T22:11:33.172Z,14.90
2018-06-13T22:14:02.784Z,15.00
2018-06-13T22:16:32.252Z,15.00
2018-06-13T22:19:01.722Z,15.00
2018-06-13T22:21:31.210Z,14.90
2018-06-13T22:24:00.669Z,14.80
2018-06-13T22:26:30.273Z,14.70
2018-06-13T22:28:59.821Z,14.60
2018-06-13T22:31:29.112Z,14.40
2018-06-13T22:33:58.407Z,14.30
2018-06-13T22:36:27.747Z,14.30
2018-06-13T22:38:57.236Z,14.30
2018-06-13T22:41:26.713Z,14.30
2018-06-13T22:43:56.362Z,14.30
2018-06-13T22:46:25.979Z,14.30
2018-06-13T22:48:55.263Z,14.30
2018-06-13T22:51:24.526Z,14.30
2018-06-13T22:53:53.848Z,14.40
2018-06-13T22:56:23.387Z,14.50
2018-06-13T23:01:21.764Z,14.40
2018-06-13T23:03:51.269Z,14.40
2018-06-13T23:08:49.777Z,14.40
2018-06-13T23:11:19.271Z,14.40
2018-06-13T23:13:48.542Z,14.40
2018-06-13T23:16:17.939Z,14.40
2018-06-13T23:18:47.480Z,14.40
2018-06-13T23:21:17.045Z,14.40
2018-06-13T23:23:46.492Z,14.40
2018-06-13T23:26:15.986Z,14.30
2018-06-13T23:28:45.526Z,14.30
2018-06-13T23:31:15.105Z,14.20
2018-06-13T23:33:44.529Z,14.20
2018-06-13T23:36:13.962Z,14.10
2018-06-13T23:38:43.464Z,14.10
2018-06-13T23:41:12.975Z,14.10
2018-06-13T23:43:42.543Z,14.20
2018-06-13T23:48:40.947Z,14.10
2018-06-13T23:51:10.510Z,14.10
2018-06-13T23:53:40.035Z,14.00
2018-06-13T23:56:09.563Z,13.90
